Time,TemperatureF,DewpointF,PressureIn,WindDirection,WindDirectionDegrees,WindSpeedMPH,WindSpeedGustMPH,Humidity,HourlyPrecipIn,Conditions,Clouds,dailyrainin,SoftwareType,DateUTC
2013-03-03 00:04:00,23.2,11.0,29.41,WSW,249,2.2,6.3,59,0.00,,---,0.00,VWS V14.01,2013-03-03 05:04:00,
2013-03-03 00:05:00,23.2,11.0,29.41,WSW,249,2.7,6.3,59,0.00,,---,0.00,VWS V14.01,2013-03-03 05:05:00,
2013-03-03 00:06:00,23.2,11.0,29.41,West,260,0.0,3.1,59,0.00,,---,0.00,VWS V14.01,2013-03-03 05:06:00,
2013-03-03 00:07:00,23.2,11.0,29.41,West,261,0.0,3.1,59,0.00,,---,0.00,VWS V14.01,2013-03-03 05:07:00,
2013-03-03 00:08:00,23.4,11.2,29.41,SW,230,4.9,4.9,59,0.00,,---,0.00,VWS V14.01,2013-03-03 05:08:00,
2013-03-03 00:09:00,23.4,11.2,29.41,WSW,243,2.7,4.9,59,0.00,,---,0.00,VWS V14.01,2013-03-03 05:09:00,
2013-03-03 00:10:00,23.4,11.2,29.41,WSW,243,2.7,4.9,59,0.00,,---,0.00,VWS V14.01,2013-03-03 05:10:00,
2013-03-03 00:11:00,23.4,11.2,29.41,West,265,5.4,7.6,59,0.00,,---,0.00,VWS V14.01,2013-03-03 05:11:00,
2013-03-03 00:12:00,23.4,11.5,29.41,WSW,244,4.0,7.6,60,0.00,,---,0.00,VWS V14.01,2013-03-03 05:12:00,
2013-03-03 00:13:00,23.4,11.5,29.41,WSW,240,0.0,7.6,60,0.00,,---,0.00,VWS V14.01,2013-03-03 05:13:00,
2013-03-03 00:14:00,23.4,11.5,29.41,West,263,4.0,7.6,60,0.00,,---,0.00,VWS V14.01,2013-03-03 05:14:00,
2013-03-03 00:15:00,23.4,11.5,29.41,West,264,3.6,7.6,60,0.00,,---,0.00,VWS V14.01,2013-03-03 05:15:00,
2013-03-03 00:16:00,23.4,11.5,29.41,WSW,256,2.2,5.4,60,0.00,,---,0.00,VWS V14.01,2013-03-03 05:16:00,
2013-03-03 00:17:00,25.2,6.8,29.38,North,8,4.0,7.6,45,0.00,,---,0.00,VWS V14.01,2013-03-03 05:17:00,
2013-03-03 00:18:00,23.4,11.5,29.41,WSW,251,5.8,7.6,60,0.00,,---,0.00,VWS V14.01,2013-03-03 05:18:00,
2013-03-03 00:19:00,23.4,11.5,29.41,WSW,250,4.0,7.6,60,0.00,,---,0.00,VWS V14.01,2013-03-03 05:19:00,
2013-03-03 00:20:00,23.4,11.5,29.41,WSW,257,4.9,7.6,60,0.00,,---,0.00,VWS V14.01,2013-03-03 05:20:00,
2013-03-03 00:21:00,23.4,11.5,29.41,South,191,4.0,5.4,60,0.00,,---,0.00,VWS V14.01,2013-03-03 05:21:00,
2013-03-03 00:22:00,23.4,11.5,29.41,WSW,243,2.7,5.4,60,0.00,,---,0.00,VWS V14.01,2013-03-03 05:22:00,
2013-03-03 00:23:00,25.0,7.1,29.38,North,353,5.8,8.1,46,0.00,,---,0.00,VWS V14.01,2013-03-03 05:23:00,
2013-03-03 00:24:00,23.4,11.5,29.41,WSW,247,3.1,5.8,60,0.00,,---,0.00,VWS V14.01,2013-03-03 05:24:00,
2013-03-03 00:25:00,23.4,11.5,29.41,West,269,5.4,5.8,60,0.00,,---,0.00,VWS V14.01,2013-03-03 05:25:00,
2013-03-03 00:26:00,23.4,11.2,29.41,WSW,247,4.5,5.4,59,0.00,,---,0.00,VWS V14.01,2013-03-03 05:26:00,
2013-03-03 00:28:00,25.0,6.7,29.38,NNW,343,3.1,8.1,45,0.00,,---,0.00,VWS V14.01,2013-03-03 05:28:00,
2013-03-03 00:33:00,25.0,7.1,29.38,North,10,5.8,8.1,46,0.00,,---,0.00,VWS V14.01,2013-03-03 05:33:00,
2013-03-03 00:38:00,24.8,7.4,29.38,North,0,3.1,7.6,47,0.00,,---,0.00,VWS V14.01,2013-03-03 05:38:00,
2013-03-03 00:43:00,25.0,7.1,29.38,North,5,5.4,5.4,46,0.00,,---,0.00,VWS V14.01,2013-03-03 05:43:00,
2013-03-03 00:48:00,24.8,7.4,29.38,North,4,6.3,6.3,47,0.00,,---,0.00,VWS V14.01,2013-03-03 05:48:00,
2013-03-03 00:53:00,24.8,7.4,29.38,NW,311,4.0,11.0,47,0.00,,---,0.00,VWS V14.01,2013-03-03 05:53:00,
2013-03-03 00:58:00,24.6,7.3,29.38,NW,313,10.1,10.1,47,0.00,,---,0.00,VWS V14.01,2013-03-03 05:58:00,
2013-03-03 01:03:00,24.6,8.2,29.38,NW,324,5.8,8.7,49,0.00,,---,0.00,VWS V14.01,2013-03-03 06:03:00,
2013-03-03 01:08:00,24.4,8.9,29.38,North,9,8.1,9.2,51,0.00,,---,0.00,VWS V14.01,2013-03-03 06:08:00,
2013-03-03 01:13:00,24.1,9.0,29.38,NNW,330,4.0,8.1,52,0.00,,---,0.00,VWS V14.01,2013-03-03 06:13:00,
2013-03-03 01:18:00,24.1,9.9,29.38,NW,313,4.9,6.3,54,0.00,,---,0.00,VWS V14.01,2013-03-03 06:18:00,
2013-03-03 01:24:00,23.9,10.1,29.38,North,9,2.7,5.8,55,0.00,,---,0.00,VWS V14.01,2013-03-03 06:24:00,
2013-03-03 01:29:00,23.9,10.5,29.38,NNW,336,3.6,5.8,56,0.00,,---,0.00,VWS V14.01,2013-03-03 06:29:00,
2013-03-03 01:34:00,23.9,10.5,29.38,NNW,329,3.6,4.0,56,0.00,,---,0.00,VWS V14.01,2013-03-03 06:34:00,
2013-03-03 01:39:00,23.9,10.9,29.35,NW,313,4.9,8.3,57,0.00,,---,0.00,VWS V14.01,2013-03-03 06:39:00,
2013-03-03 01:44:00,23.9,11.3,29.35,NNW,327,7.6,7.6,58,0.00,,---,0.00,VWS V14.01,2013-03-03 06:44:00,
2013-03-03 01:49:00,23.9,11.7,29.35,WNW,302,4.9,4.9,59,0.00,,---,0.00,VWS V14.01,2013-03-03 06:49:00,
2013-03-03 01:54:00,23.9,12.1,29.35,NW,313,6.3,6.3,60,0.00,,---,0.00,VWS V14.01,2013-03-03 06:54:00,
2013-03-03 01:59:00,23.7,12.2,29.35,NNW,338,4.0,6.3,61,0.00,,---,0.00,VWS V14.01,2013-03-03 06:59:00,
2013-03-03 02:04:00,23.7,12.6,29.35,NW,319,2.7,6.3,62,0.00,,---,0.00,VWS V14.01,2013-03-03 07:04:00,
2013-03-03 02:10:00,23.7,13.0,29.35,NW,318,3.1,6.3,63,0.00,,---,0.00,VWS V14.01,2013-03-03 07:10:00,
2013-03-03 02:15:00,23.7,13.3,29.35,NW,321,0.0,4.9,64,0.00,,---,0.00,VWS V14.01,2013-03-03 07:15:00,
2013-03-03 02:20:00,23.7,13.7,29.35,NW,325,3.6,5.4,65,0.00,,---,0.00,VWS V14.01,2013-03-03 07:20:00,
2013-03-03 02:25:00,23.7,13.7,29.35,NW,310,4.0,5.4,65,0.00,,---,0.00,VWS V14.01,2013-03-03 07:25:00,
2013-03-03 02:30:00,23.7,14.0,29.35,NW,308,3.6,4.9,66,0.00,,---,0.00,VWS V14.01,2013-03-03 07:30:00,
2013-03-03 02:35:00,23.7,14.0,29.35,NW,318,4.9,4.9,66,0.00,,---,0.00,VWS V14.01,2013-03-03 07:35:00,
2013-03-03 02:40:00,23.7,14.4,29.35,NNW,339,3.1,6.3,67,0.00,,---,0.00,VWS V14.01,2013-03-03 07:40:00,
2013-03-03 02:45:00,23.7,14.4,29.35,NW,304,3.1,4.9,67,0.00,,---,0.00,VWS V14.01,2013-03-03 07:45:00,
2013-03-03 02:50:00,23.7,14.4,29.35,NW,313,3.1,5.4,67,0.00,,---,0.00,VWS V14.01,2013-03-03 07:50:00,
2013-03-03 02:55:00,23.7,14.4,29.35,NW,311,4.9,6.3,67,0.00,,---,0.00,VWS V14.01,2013-03-03 07:55:00,
2013-03-03 03:01:00,23.7,14.4,29.35,WNW,299,2.7,4.9,67,0.00,,---,0.00,VWS V14.01,2013-03-03 08:01:00,
2013-03-03 03:06:00,23.7,14.7,29.35,NNW,341,2.2,4.0,68,0.00,,---,0.00,VWS V14.01,2013-03-03 08:06:00,
2013-03-03 03:11:00,23.5,14.2,29.35,NNW,329,4.0,4.0,67,0.00,,---,0.00,VWS V14.01,2013-03-03 08:11:00,
2013-03-03 03:16:00,23.5,14.2,29.35,WSW,244,4.0,4.0,67,0.00,,---,0.00,VWS V14.01,2013-03-03 08:16:00,
2013-03-03 03:21:00,23.5,14.6,29.35,WNW,291,6.3,7.6,68,0.00,,---,0.00,VWS V14.01,2013-03-03 08:21:00,
2013-03-03 03:26:00,23.5,14.6,29.35,West,268,6.3,6.3,68,0.00,,---,0.00,VWS V14.01,2013-03-03 08:26:00,
2013-03-03 03:31:00,23.5,14.9,29.35,NNW,327,4.0,8.7,69,0.00,,---,0.00,VWS V14.01,2013-03-03 08:31:00,
2013-03-03 03:36:00,23.4,14.7,29.35,NNW,344,3.1,3.1,69,0.00,,---,0.00,VWS V14.01,2013-03-03 08:36:00,
2013-03-03 03:41:00,23.5,14.9,29.35,NNW,327,4.0,4.0,69,0.00,,---,0.00,VWS V14.01,2013-03-03 08:41:00,
2013-03-03 03:46:00,23.5,14.9,29.35,NW,321,3.1,5.4,69,0.00,,---,0.00,VWS V14.01,2013-03-03 08:46:00,
2013-03-03 03:51:00,23.5,14.9,29.35,NW,324,4.0,5.4,69,0.00,,---,0.00,VWS V14.01,2013-03-03 08:51:00,
2013-03-03 03:56:00,23.5,14.9,29.35,NNW,329,6.3,7.6,69,0.00,,---,0.00,VWS V14.01,2013-03-03 08:56:00,
2013-03-03 04:02:00,23.4,14.7,29.35,NNW,346,4.0,8.3,69,0.00,,---,0.00,VWS V14.01,2013-03-03 09:02:00,
2013-03-03 04:07:00,23.2,14.2,29.35,WNW,293,3.6,6.3,68,0.00,,---,0.00,VWS V14.01,2013-03-03 09:07:00,
2013-03-03 04:12:00,23.2,14.2,29.35,WNW,283,2.7,4.5,68,0.00,,---,0.00,VWS V14.01,2013-03-03 09:12:00,
2013-03-03 04:17:00,23.2,14.2,29.35,NNW,333,3.1,5.4,68,0.00,,---,0.00,VWS V14.01,2013-03-03 09:17:00,
2013-03-03 04:22:00,23.2,14.5,29.35,WNW,290,2.7,5.8,69,0.00,,---,0.00,VWS V14.01,2013-03-03 09:22:00,
2013-03-03 04:27:00,23.2,14.5,29.35,NW,320,4.5,7.6,69,0.00,,---,0.00,VWS V14.01,2013-03-03 09:27:00,
2013-03-03 04:32:00,23.0,14.4,29.35,WNW,303,5.8,6.3,69,0.00,,---,0.00,VWS V14.01,2013-03-03 09:32:00,
2013-03-03 04:37:00,23.0,14.4,29.35,WNW,285,5.8,6.3,69,0.00,,---,0.00,VWS V14.01,2013-03-03 09:37:00,
2013-03-03 04:40:00,22.8,8.3,29.44,WSW,251,6.3,6.3,53,0.00,,---,0.00,VWS V14.01,2013-03-03 09:40:00,
2013-03-03 04:41:00,22.8,8.3,29.44,WNW,294,5.8,6.3,53,0.00,,---,0.00,VWS V14.01,2013-03-03 09:41:00,
2013-03-03 04:42:00,23.0,14.4,29.35,NW,320,3.6,6.3,69,0.00,,---,0.00,VWS V14.01,2013-03-03 09:42:00,
2013-03-03 04:43:00,22.8,8.3,29.44,WSW,240,4.0,6.3,53,0.00,,---,0.00,VWS V14.01,2013-03-03 09:43:00,
2013-03-03 04:46:00,22.8,8.3,29.44,West,269,3.1,6.3,53,0.00,,---,0.00,VWS V14.01,2013-03-03 09:46:00,
2013-03-03 04:48:00,22.8,14.5,29.35,WNW,293,4.5,8.3,70,0.00,,---,0.00,VWS V14.01,2013-03-03 09:48:00,
2013-03-03 04:49:00,22.8,8.3,29.44,WSW,244,4.0,6.3,53,0.00,,---,0.00,VWS V14.01,2013-03-03 09:49:00,
2013-03-03 04:50:00,22.8,8.3,29.44,West,262,3.1,7.2,53,0.00,,---,0.00,VWS V14.01,2013-03-03 09:50:00,
2013-03-03 04:52:00,22.8,8.3,29.44,WSW,253,3.1,6.3,53,0.00,,---,0.00,VWS V14.01,2013-03-03 09:52:00,
2013-03-03 04:53:00,22.8,14.5,29.35,NNW,329,5.4,8.1,70,0.00,,---,0.00,VWS V14.01,2013-03-03 09:53:00,
2013-03-03 04:54:00,22.8,8.3,29.44,West,273,4.9,6.3,53,0.00,,---,0.00,VWS V14.01,2013-03-03 09:54:00,
2013-03-03 04:55:00,22.8,8.3,29.44,WSW,252,2.7,6.3,53,0.00,,---,0.00,VWS V14.01,2013-03-03 09:55:00,
2013-03-03 04:57:00,22.8,8.3,29.44,WSW,245,5.8,5.8,53,0.00,,---,0.00,VWS V14.01,2013-03-03 09:57:00,
2013-03-03 04:58:00,22.8,14.2,29.35,WNW,299,5.8,8.1,69,0.00,,---,0.00,VWS V14.01,2013-03-03 09:58:00,
2013-03-03 05:03:00,22.8,14.5,29.35,NW,316,3.1,5.4,70,0.00,,---,0.00,VWS V14.01,2013-03-03 10:03:00,
2013-03-03 05:08:00,22.8,14.5,29.35,NNW,328,3.1,6.3,70,0.00,,---,0.00,VWS V14.01,2013-03-03 10:08:00,
2013-03-03 05:13:00,22.8,14.8,29.35,North,4,3.1,6.3,71,0.00,,---,0.00,VWS V14.01,2013-03-03 10:13:00,
2013-03-03 05:18:00,22.6,14.3,29.35,NNW,344,5.8,7.2,70,0.00,,---,0.00,VWS V14.01,2013-03-03 10:18:00,
2013-03-03 05:23:00,22.5,13.8,29.35,NW,314,4.9,6.3,69,0.00,,---,0.00,VWS V14.01,2013-03-03 10:23:00,
2013-03-03 05:28:00,22.5,13.5,29.35,NW,307,5.8,6.3,68,0.00,,---,0.00,VWS V14.01,2013-03-03 10:28:00,
2013-03-03 05:33:00,22.5,13.5,29.35,NNW,342,3.1,8.3,68,0.00,,---,0.00,VWS V14.01,2013-03-03 10:33:00,
2013-03-03 05:38:00,22.5,13.5,29.35,North,0,4.5,4.5,68,0.00,,---,0.00,VWS V14.01,2013-03-03 10:38:00,
2013-03-03 05:44:00,22.5,13.5,29.35,NW,304,5.4,5.4,68,0.00,,---,0.00,VWS V14.01,2013-03-03 10:44:00,
2013-03-03 05:49:00,22.3,13.3,29.35,NNW,340,4.9,6.3,68,0.00,,---,0.00,VWS V14.01,2013-03-03 10:49:00,
2013-03-03 05:54:00,22.3,13.0,29.35,NW,322,3.6,6.3,67,0.00,,---,0.00,VWS V14.01,2013-03-03 10:54:00,
2013-03-03 05:59:00,22.1,12.8,29.35,NNW,330,4.0,4.0,67,0.00,,---,0.00,VWS V14.01,2013-03-03 10:59:00,
2013-03-03 06:04:00,22.1,12.8,29.35,NNW,344,3.6,5.4,67,0.00,,---,0.00,VWS V14.01,2013-03-03 11:04:00,
2013-03-03 06:09:00,21.9,12.7,29.35,North,0,5.4,6.3,67,0.00,,---,0.00,VWS V14.01,2013-03-03 11:09:00,
2013-03-03 06:14:00,21.9,12.3,29.35,NW,321,5.4,8.1,66,0.00,,---,0.00,VWS V14.01,2013-03-03 11:14:00,
2013-03-03 06:19:00,21.9,12.0,29.35,WNW,298,5.4,8.7,65,0.00,,---,0.00,VWS V14.01,2013-03-03 11:19:00,
2013-03-03 06:25:00,21.7,11.4,29.35,NW,310,3.1,5.8,64,0.00,,---,0.00,VWS V14.01,2013-03-03 11:25:00,
2013-03-03 06:30:00,21.9,11.6,29.35,North,353,5.4,5.4,64,0.00,,---,0.00,VWS V14.01,2013-03-03 11:30:00,
2013-03-03 06:35:00,21.7,11.1,29.35,WNW,293,2.7,5.8,63,0.00,,---,0.00,VWS V14.01,2013-03-03 11:35:00,
2013-03-03 06:40:00,21.7,10.4,29.35,NW,317,3.6,7.6,61,0.00,,---,0.00,VWS V14.01,2013-03-03 11:40:00,
2013-03-03 06:45:00,21.7,10.0,29.35,North,5,3.1,6.3,60,0.00,,---,0.00,VWS V14.01,2013-03-03 11:45:00,
2013-03-03 06:50:00,21.6,9.5,29.35,North,0,5.8,8.1,59,0.00,,---,0.00,VWS V14.01,2013-03-03 11:50:00,
2013-03-03 06:55:00,21.2,8.0,29.35,North,8,5.4,8.3,56,0.00,,---,0.00,VWS V14.01,2013-03-03 11:55:00,
2013-03-03 07:00:00,21.4,7.7,29.35,NW,326,5.4,7.6,55,0.00,,---,0.00,VWS V14.01,2013-03-03 12:00:00,
2013-03-03 07:05:00,21.4,7.3,29.35,NNW,344,4.0,8.1,54,0.00,,---,0.00,VWS V14.01,2013-03-03 12:05:00,
2013-03-03 07:10:00,21.4,6.9,29.35,NW,308,2.2,2.2,53,0.00,,---,0.00,VWS V14.01,2013-03-03 12:10:00,
2013-03-03 07:16:00,21.4,6.9,29.35,NW,322,3.1,3.1,53,0.00,,---,0.00,VWS V14.01,2013-03-03 12:16:00,
2013-03-03 07:21:00,21.6,7.1,29.35,NNW,342,2.7,2.7,53,0.00,,---,0.00,VWS V14.01,2013-03-03 12:21:00,
2013-03-03 07:26:00,21.6,6.7,29.35,NNW,338,5.4,5.4,52,0.00,,---,0.00,VWS V14.01,2013-03-03 12:26:00,
2013-03-03 07:31:00,21.6,6.2,29.35,NW,321,4.0,4.0,51,0.00,,---,0.00,VWS V14.01,2013-03-03 12:31:00,
2013-03-03 07:36:00,21.6,6.2,29.35,WNW,301,4.0,4.9,51,0.00,,---,0.00,VWS V14.01,2013-03-03 12:36:00,
2013-03-03 07:41:00,21.7,6.4,29.38,NW,324,4.0,4.0,51,0.00,,---,0.00,VWS V14.01,2013-03-03 12:41:00,
2013-03-03 07:46:00,21.7,6.4,29.38,NW,323,3.6,4.0,51,0.00,,---,0.00,VWS V14.01,2013-03-03 12:46:00,
2013-03-03 07:51:00,21.9,6.6,29.38,NW,326,4.0,4.5,51,0.00,,---,0.00,VWS V14.01,2013-03-03 12:51:00,
2013-03-03 07:56:00,21.7,6.0,29.38,NW,316,5.4,5.8,50,0.00,,---,0.00,VWS V14.01,2013-03-03 12:56:00,
2013-03-03 08:01:00,21.7,6.0,29.38,NW,318,5.4,8.1,50,0.00,,---,0.00,VWS V14.01,2013-03-03 13:01:00,
2013-03-03 08:07:00,21.7,5.5,29.38,NNW,341,2.2,5.8,49,0.00,,---,0.00,VWS V14.01,2013-03-03 13:07:00,
2013-03-03 08:12:00,21.9,5.2,29.38,North,0,5.4,8.3,48,0.00,,---,0.00,VWS V14.01,2013-03-03 13:12:00,
2013-03-03 08:17:00,21.9,5.2,29.38,WNW,301,4.0,6.3,48,0.00,,---,0.00,VWS V14.01,2013-03-03 13:17:00,
2013-03-03 08:22:00,21.9,4.3,29.38,NW,306,3.1,8.1,46,0.00,,---,0.00,VWS V14.01,2013-03-03 13:22:00,
2013-03-03 08:27:00,21.9,4.3,29.38,WNW,294,4.0,5.4,46,0.00,,---,0.00,VWS V14.01,2013-03-03 13:27:00,
2013-03-03 08:32:00,22.1,4.5,29.38,North,353,3.1,5.4,46,0.00,,---,0.00,VWS V14.01,2013-03-03 13:32:00,
2013-03-03 08:37:00,22.1,4.5,29.38,NNW,338,5.4,5.4,46,0.00,,---,0.00,VWS V14.01,2013-03-03 13:37:00,
2013-03-03 08:42:00,22.3,4.2,29.38,North,7,4.0,6.7,45,0.00,,---,0.00,VWS V14.01,2013-03-03 13:42:00,
2013-03-03 08:48:00,22.5,4.3,29.38,WNW,293,6.3,6.3,45,0.00,,---,0.00,VWS V14.01,2013-03-03 13:48:00,
2013-03-03 08:53:00,22.8,4.2,29.38,NW,309,5.8,6.3,44,0.00,,---,0.00,VWS V14.01,2013-03-03 13:53:00,
2013-03-03 08:58:00,22.6,3.0,29.38,NW,326,7.6,8.7,42,0.00,,---,0.00,VWS V14.01,2013-03-03 13:58:00,
2013-03-03 09:03:00,22.3,2.7,29.38,NW,309,5.8,10.5,42,0.00,,---,0.00,VWS V14.01,2013-03-03 14:03:00,
2013-03-03 09:08:00,22.3,2.2,29.38,NNW,334,4.0,10.5,41,0.00,,---,0.00,VWS V14.01,2013-03-03 14:08:00,
2013-03-03 09:13:00,22.3,1.6,29.38,NW,314,3.6,10.1,40,0.00,,---,0.00,VWS V14.01,2013-03-03 14:13:00,
2013-03-03 09:18:00,22.8,3.2,29.38,NW,312,3.1,6.3,42,0.00,,---,0.00,VWS V14.01,2013-03-03 14:18:00,
2013-03-03 09:23:00,23.0,1.2,29.38,North,4,7.6,8.3,38,0.00,,---,0.00,VWS V14.01,2013-03-03 14:23:00,
2013-03-03 09:28:00,22.8,0.5,29.38,NNE,15,5.8,10.5,37,0.00,,---,0.00,VWS V14.01,2013-03-03 14:28:00,
2013-03-03 09:33:00,22.8,0.5,29.38,North,353,5.4,9.2,37,0.00,,---,0.00,VWS V14.01,2013-03-03 14:33:00,
2013-03-03 09:38:00,23.0,1.2,29.38,NW,312,5.8,6.3,38,0.00,,---,0.00,VWS V14.01,2013-03-03 14:38:00,
2013-03-03 09:44:00,23.0,0.0,29.38,WNW,283,6.3,8.7,36,0.00,,---,0.00,VWS V14.01,2013-03-03 14:44:00,
2013-03-03 09:49:00,23.2,0.8,29.38,NW,314,5.8,8.3,37,0.00,,---,0.00,VWS V14.01,2013-03-03 14:49:00,
2013-03-03 09:54:00,23.4,0.9,29.38,North,353,6.3,8.3,37,0.00,,---,0.00,VWS V14.01,2013-03-03 14:54:00,
2013-03-03 09:59:00,23.2,0.8,29.38,NNW,342,6.3,8.7,37,0.00,,---,0.00,VWS V14.01,2013-03-03 14:59:00,
2013-03-03 10:04:00,23.4,3.2,29.38,NNW,343,5.8,8.7,41,0.00,,---,0.00,VWS V14.01,2013-03-03 15:04:00,
2013-03-03 10:09:00,23.9,2.0,29.38,WNW,300,4.0,8.1,38,0.00,,---,0.00,VWS V14.01,2013-03-03 15:09:00,
2013-03-03 10:14:00,24.4,2.5,29.38,WNW,300,8.1,8.1,38,0.00,,---,0.00,VWS V14.01,2013-03-03 15:14:00,
2013-03-03 10:19:00,24.4,1.9,29.38,WNW,300,6.3,8.1,37,0.00,,---,0.00,VWS V14.01,2013-03-03 15:19:00,
2013-03-03 10:24:00,24.3,1.8,29.38,NW,321,5.8,7.6,37,0.00,,---,0.00,VWS V14.01,2013-03-03 15:24:00,
2013-03-03 10:29:00,23.9,1.4,29.38,NNE,27,7.6,8.7,37,0.00,,---,0.00,VWS V14.01,2013-03-03 15:29:00,
2013-03-03 10:35:00,23.9,1.4,29.38,NW,326,5.4,8.3,37,0.00,,---,0.00,VWS V14.01,2013-03-03 15:35:00,
2013-03-03 10:40:00,24.1,1.6,29.35,WNW,293,6.3,8.7,37,0.00,,---,0.00,VWS V14.01,2013-03-03 15:40:00,
2013-03-03 10:45:00,24.3,4.5,29.35,NW,311,4.9,8.3,42,0.00,,---,0.00,VWS V14.01,2013-03-03 15:45:00,
2013-03-03 10:50:00,24.1,2.2,29.35,NW,324,5.4,8.7,38,0.00,,---,0.00,VWS V14.01,2013-03-03 15:50:00,
2013-03-03 10:55:00,24.3,4.5,29.38,NNW,335,6.3,11.0,42,0.00,,---,0.00,VWS V14.01,2013-03-03 15:55:00,
2013-03-03 11:00:00,24.4,4.7,29.38,North,3,8.1,8.7,42,0.00,,---,0.00,VWS V14.01,2013-03-03 16:00:00,
2013-03-03 11:05:00,24.3,2.9,29.38,West,266,6.3,8.7,39,0.00,,---,0.00,VWS V14.01,2013-03-03 16:05:00,
2013-03-03 11:10:00,24.8,4.4,29.38,NE,43,4.0,10.1,41,0.00,,---,0.00,VWS V14.01,2013-03-03 16:10:00,
2013-03-03 11:15:00,25.3,3.9,29.38,NNW,348,7.6,7.6,39,0.00,,---,0.00,VWS V14.01,2013-03-03 16:15:00,
2013-03-03 11:20:00,25.2,2.0,29.38,North,11,4.0,12.3,36,0.00,,---,0.00,VWS V14.01,2013-03-03 16:20:00,
2013-03-03 11:25:00,24.8,2.2,29.38,North,357,3.6,8.7,37,0.00,,---,0.00,VWS V14.01,2013-03-03 16:25:00,
2013-03-03 11:30:00,25.5,5.1,29.38,WNW,299,5.8,5.8,41,0.00,,---,0.00,VWS V14.01,2013-03-03 16:30:00,
2013-03-03 11:36:00,26.1,3.9,29.38,NNW,346,3.1,3.6,38,0.00,,---,0.00,VWS V14.01,2013-03-03 16:36:00,
2013-03-03 11:41:00,26.6,3.3,29.38,WNW,291,6.3,6.3,36,0.00,,---,0.00,VWS V14.01,2013-03-03 16:41:00,
2013-03-03 11:46:00,26.6,2.0,29.38,West,281,6.3,6.3,34,0.00,,---,0.00,VWS V14.01,2013-03-03 16:46:00,
2013-03-03 11:51:00,26.2,2.3,29.38,NW,321,6.3,8.3,35,0.00,,---,0.00,VWS V14.01,2013-03-03 16:51:00,
2013-03-03 11:56:00,25.3,1.5,29.38,NW,317,8.3,8.3,35,0.00,,---,0.00,VWS V14.01,2013-03-03 16:56:00,
2013-03-03 12:01:00,25.2,2.0,29.38,West,265,5.8,5.8,36,0.00,,---,0.00,VWS V14.01,2013-03-03 17:01:00,
2013-03-03 12:06:00,25.5,2.3,29.38,NW,316,5.4,5.8,36,0.00,,---,0.00,VWS V14.01,2013-03-03 17:06:00,
2013-03-03 12:11:00,25.7,2.5,29.38,NW,305,5.4,5.8,36,0.00,,---,0.00,VWS V14.01,2013-03-03 17:11:00,
2013-03-03 12:17:00,25.9,2.0,29.38,WSW,258,8.1,8.1,35,0.00,,---,0.00,VWS V14.01,2013-03-03 17:17:00,
2013-03-03 12:22:00,26.1,2.2,29.38,NNW,344,10.5,10.5,35,0.00,,---,0.00,VWS V14.01,2013-03-03 17:22:00,
2013-03-03 12:27:00,26.1,2.2,29.38,NW,316,4.0,5.8,35,0.00,,---,0.00,VWS V14.01,2013-03-03 17:27:00,
2013-03-03 12:32:00,27.3,3.9,29.38,SW,231,5.8,8.3,36,0.00,,---,0.00,VWS V14.01,2013-03-03 17:32:00,
2013-03-03 12:37:00,26.4,1.2,29.35,WNW,296,8.7,10.5,33,0.00,,---,0.00,VWS V14.01,2013-03-03 17:37:00,
2013-03-03 12:42:00,26.1,1.5,29.35,WNW,303,3.1,8.7,34,0.00,,---,0.00,VWS V14.01,2013-03-03 17:42:00,
2013-03-03 12:47:00,26.2,1.7,29.35,West,280,7.6,10.1,34,0.00,,---,0.00,VWS V14.01,2013-03-03 17:47:00,
2013-03-03 12:52:00,26.6,1.4,29.35,NNW,343,10.1,10.1,33,0.00,,---,0.00,VWS V14.01,2013-03-03 17:52:00,
2013-03-03 12:57:00,26.6,2.0,29.35,West,279,9.6,10.5,34,0.00,,---,0.00,VWS V14.01,2013-03-03 17:57:00,
2013-03-03 13:03:00,26.1,1.5,29.35,North,4,10.1,11.0,34,0.00,,---,0.00,VWS V14.01,2013-03-03 18:03:00,
2013-03-03 13:08:00,26.6,3.3,29.35,SW,234,4.9,8.1,36,0.00,,---,0.00,VWS V14.01,2013-03-03 18:08:00,
2013-03-03 13:13:00,27.9,2.5,29.35,NNW,339,6.3,8.1,33,0.00,,---,0.00,VWS V14.01,2013-03-03 18:13:00,
2013-03-03 13:18:00,27.5,2.2,29.35,NW,319,6.3,8.7,33,0.00,,---,0.00,VWS V14.01,2013-03-03 18:18:00,
2013-03-03 13:23:00,27.0,1.7,29.35,North,353,5.4,8.1,33,0.00,,---,0.00,VWS V14.01,2013-03-03 18:23:00,
2013-03-03 13:28:00,27.0,1.0,29.35,NW,315,3.1,11.0,32,0.00,,---,0.00,VWS V14.01,2013-03-03 18:28:00,
2013-03-03 13:33:00,27.1,1.9,29.35,West,280,7.6,8.3,33,0.00,,---,0.00,VWS V14.01,2013-03-03 18:33:00,
2013-03-03 13:34:00,34.2,2.0,29.47,NW,319,15.4,15.4,25,0.00,,---,0.00,VWS V14.01,2013-03-03 18:34:00,
2013-03-03 13:35:00,34.0,-0.9,29.47,SW,228,11.0,15.4,22,0.00,,---,0.00,VWS V14.01,2013-03-03 18:35:00,
2013-03-03 13:36:00,33.8,1.7,29.47,WNW,298,8.1,12.8,25,0.00,,---,0.00,VWS V14.01,2013-03-03 18:36:00,
2013-03-03 13:37:00,33.6,1.6,29.47,WNW,289,8.7,17.0,25,0.00,,---,0.00,VWS V14.01,2013-03-03 18:37:00,
2013-03-03 13:38:00,26.8,2.2,29.35,NNW,336,8.3,11.0,34,0.00,,---,0.00,VWS V14.01,2013-03-03 18:38:00,
2013-03-03 13:39:00,33.6,1.6,29.47,North,0,10.1,17.0,25,0.00,,---,0.00,VWS V14.01,2013-03-03 18:39:00,
2013-03-03 13:40:00,33.6,1.6,29.47,WNW,291,9.6,17.0,25,0.00,,---,0.00,VWS V14.01,2013-03-03 18:40:00,
2013-03-03 13:41:00,33.8,1.7,29.47,WNW,289,6.3,9.6,25,0.00,,---,0.00,VWS V14.01,2013-03-03 18:41:00,
2013-03-03 13:42:00,34.0,1.9,29.47,NW,314,5.8,9.6,25,0.00,,---,0.00,VWS V14.01,2013-03-03 18:42:00,
2013-03-03 13:43:00,26.6,2.7,29.35,WNW,303,5.8,10.1,35,0.00,,---,0.00,VWS V14.01,2013-03-03 18:43:00,
2013-03-03 13:44:00,33.8,1.7,29.47,WNW,293,6.3,12.8,25,0.00,,---,0.00,VWS V14.01,2013-03-03 18:44:00,
2013-03-03 13:45:00,34.0,1.9,29.47,WNW,288,7.2,12.8,25,0.00,,---,0.00,VWS V14.01,2013-03-03 18:45:00,
2013-03-03 13:46:00,33.8,1.7,29.47,WNW,283,8.3,8.7,25,0.00,,---,0.00,VWS V14.01,2013-03-03 18:46:00,
2013-03-03 13:47:00,34.0,3.5,29.47,WNW,291,8.7,8.7,27,0.00,,---,0.00,VWS V14.01,2013-03-03 18:47:00,
2013-03-03 13:48:00,34.0,3.5,29.47,WNW,300,10.1,12.8,27,0.00,,---,0.00,VWS V14.01,2013-03-03 18:48:00,
2013-03-03 13:49:00,26.6,2.0,29.35,WNW,286,5.8,8.7,34,0.00,,---,0.00,VWS V14.01,2013-03-03 18:49:00,
2013-03-03 13:50:00,33.4,1.4,29.47,WNW,292,7.6,12.8,25,0.00,,---,0.00,VWS V14.01,2013-03-03 18:50:00,
2013-03-03 13:51:00,33.4,3.8,29.47,NW,312,5.4,10.1,28,0.00,,---,0.00,VWS V14.01,2013-03-03 18:51:00,
2013-03-03 13:52:00,33.3,1.2,29.47,West,261,8.1,10.1,25,0.00,,---,0.00,VWS V14.01,2013-03-03 18:52:00,
2013-03-03 13:54:00,26.6,3.3,29.35,NW,318,4.0,8.3,36,0.00,,---,0.00,VWS V14.01,2013-03-03 18:54:00,
2013-03-03 13:55:00,33.6,4.0,29.47,West,270,7.6,10.5,28,0.00,,---,0.00,VWS V14.01,2013-03-03 18:55:00,
2013-03-03 13:56:00,33.6,4.0,29.47,West,260,5.4,8.1,28,0.00,,---,0.00,VWS V14.01,2013-03-03 18:56:00,
2013-03-03 13:57:00,33.8,5.7,29.47,West,277,6.3,8.1,30,0.00,,---,0.00,VWS V14.01,2013-03-03 18:57:00,
2013-03-03 13:58:00,33.6,4.0,29.47,WNW,303,11.0,11.9,28,0.00,,---,0.00,VWS V14.01,2013-03-03 18:58:00,
2013-03-03 13:59:00,27.0,3.0,29.35,WNW,298,4.0,8.3,35,0.00,,---,0.00,VWS V14.01,2013-03-03 18:59:00,
2013-03-03 14:04:00,26.8,2.8,29.35,WNW,300,7.2,10.1,35,0.00,,---,0.00,VWS V14.01,2013-03-03 19:04:00,
2013-03-03 14:09:00,26.8,3.4,29.35,WNW,301,8.3,8.7,36,0.00,,---,0.00,VWS V14.01,2013-03-03 19:09:00,
2013-03-03 14:14:00,26.4,4.3,29.35,NNW,345,6.3,10.1,38,0.00,,---,0.00,VWS V14.01,2013-03-03 19:14:00,
2013-03-03 14:19:00,26.4,4.3,29.35,WNW,296,4.9,8.3,38,0.00,,---,0.00,VWS V14.01,2013-03-03 19:19:00,
2013-03-03 14:24:00,27.0,5.9,29.35,WNW,283,7.6,8.3,40,0.00,,---,0.00,VWS V14.01,2013-03-03 19:24:00,
2013-03-03 14:30:00,26.4,4.8,29.35,WNW,295,8.3,10.5,39,0.00,,---,0.00,VWS V14.01,2013-03-03 19:30:00,
2013-03-03 14:35:00,26.1,4.5,29.35,WNW,302,8.1,9.6,39,0.00,,---,0.00,VWS V14.01,2013-03-03 19:35:00,
2013-03-03 14:40:00,26.2,5.8,29.35,WNW,294,2.7,9.6,41,0.00,,---,0.00,VWS V14.01,2013-03-03 19:40:00,
2013-03-03 14:45:00,26.2,5.2,29.35,NNW,327,8.3,8.7,40,0.00,,---,0.00,VWS V14.01,2013-03-03 19:45:00,
2013-03-03 14:50:00,27.0,6.4,29.35,NW,320,0.0,7.6,41,0.00,,---,0.00,VWS V14.01,2013-03-03 19:50:00,
2013-03-03 14:55:00,28.0,7.4,29.35,WNW,283,4.0,6.3,41,0.00,,---,0.00,VWS V14.01,2013-03-03 19:55:00,
2013-03-03 15:00:00,28.4,6.1,29.35,West,267,4.0,8.3,38,0.00,,---,0.00,VWS V14.01,2013-03-03 20:00:00,
2013-03-03 15:05:00,28.0,3.9,29.35,WNW,301,6.3,9.6,35,0.00,,---,0.00,VWS V14.01,2013-03-03 20:05:00,
2013-03-03 15:10:00,28.4,4.2,29.35,West,279,3.6,6.7,35,0.00,,---,0.00,VWS V14.01,2013-03-03 20:10:00,
2013-03-03 15:15:00,28.8,3.3,29.35,NW,313,6.3,6.7,33,0.00,,---,0.00,VWS V14.01,2013-03-03 20:15:00,
2013-03-03 15:20:00,28.6,2.5,29.35,North,0,5.8,5.8,32,0.00,,---,0.00,VWS V14.01,2013-03-03 20:20:00,
2013-03-03 15:26:00,28.4,3.0,29.35,WNW,300,5.4,5.4,33,0.00,,---,0.00,VWS V14.01,2013-03-03 20:26:00,
2013-03-03 15:31:00,28.2,2.8,29.35,West,259,5.4,6.3,33,0.00,,---,0.00,VWS V14.01,2013-03-03 20:31:00,
2013-03-03 15:36:00,28.4,3.0,29.35,SW,226,5.8,5.8,33,0.00,,---,0.00,VWS V14.01,2013-03-03 20:36:00,
2013-03-03 15:41:00,28.2,2.8,29.35,WSW,256,4.0,7.6,33,0.00,,---,0.00,VWS V14.01,2013-03-03 20:41:00,
2013-03-03 15:46:00,28.4,3.0,29.35,NW,321,11.0,11.0,33,0.00,,---,0.00,VWS V14.01,2013-03-03 20:46:00,
2013-03-03 15:51:00,28.0,2.7,29.35,WSW,252,4.0,5.4,33,0.00,,---,0.00,VWS V14.01,2013-03-03 20:51:00,
2013-03-03 15:56:00,28.2,2.8,29.35,WSW,243,7.6,7.6,33,0.00,,---,0.00,VWS V14.01,2013-03-03 20:56:00,
2013-03-03 16:02:00,28.4,3.0,29.35,West,267,6.3,7.6,33,0.00,,---,0.00,VWS V14.01,2013-03-03 21:02:00,
2013-03-03 16:07:00,27.9,3.2,29.35,WSW,257,3.1,8.3,34,0.00,,---,0.00,VWS V14.01,2013-03-03 21:07:00,
2013-03-03 16:12:00,28.2,4.1,29.35,WNW,284,2.2,5.8,35,0.00,,---,0.00,VWS V14.01,2013-03-03 21:12:00,
2013-03-03 16:17:00,27.9,3.8,29.35,WNW,287,3.6,6.3,35,0.00,,---,0.00,VWS V14.01,2013-03-03 21:17:00,
2013-03-03 16:22:00,27.9,4.4,29.35,NW,310,6.3,6.3,36,0.00,,---,0.00,VWS V14.01,2013-03-03 21:22:00,
2013-03-03 16:27:00,27.3,4.5,29.35,NW,307,5.8,8.3,37,0.00,,---,0.00,VWS V14.01,2013-03-03 21:27:00,
2013-03-03 16:31:00,31.5,8.8,29.47,WSW,245,5.8,10.1,38,0.00,,---,0.00,VWS V14.01,2013-03-03 21:31:00,
2013-03-03 16:33:00,27.1,4.9,29.35,WNW,285,4.0,8.7,38,0.00,,---,0.00,VWS V14.01,2013-03-03 21:33:00,
2013-03-03 16:35:00,31.5,8.8,29.47,West,277,8.1,10.1,38,0.00,,---,0.00,VWS V14.01,2013-03-03 21:35:00,
2013-03-03 16:36:00,31.3,8.6,29.47,WSW,239,4.0,8.7,38,0.00,,---,0.00,VWS V14.01,2013-03-03 21:36:00,
2013-03-03 16:37:00,31.5,8.8,29.47,West,272,6.3,8.7,38,0.00,,---,0.00,VWS V14.01,2013-03-03 21:37:00,
2013-03-03 16:38:00,27.0,5.9,29.35,West,264,4.0,6.7,40,0.00,,---,0.00,VWS V14.01,2013-03-03 21:38:00,
2013-03-03 16:39:00,31.5,8.8,29.47,NW,318,4.0,8.7,38,0.00,,---,0.00,VWS V14.01,2013-03-03 21:39:00,
2013-03-03 16:41:00,31.5,9.4,29.47,WNW,292,4.9,8.1,39,0.00,,---,0.00,VWS V14.01,2013-03-03 21:41:00,
2013-03-03 16:43:00,27.0,6.4,29.35,NNW,332,3.1,5.8,41,0.00,,---,0.00,VWS V14.01,2013-03-03 21:43:00,
2013-03-03 16:44:00,31.5,8.8,29.47,WSW,249,3.1,10.5,38,0.00,,---,0.00,VWS V14.01,2013-03-03 21:44:00,
2013-03-03 16:45:00,31.5,8.8,29.47,WSW,256,8.3,8.3,38,0.00,,---,0.00,VWS V14.01,2013-03-03 21:45:00,
2013-03-03 16:46:00,31.5,8.8,29.47,WSW,237,10.1,10.1,38,0.00,,---,0.00,VWS V14.01,2013-03-03 21:46:00,
2013-03-03 16:48:00,27.0,6.4,29.35,West,270,5.8,8.7,41,0.00,,---,0.00,VWS V14.01,2013-03-03 21:48:00,
2013-03-03 16:49:00,31.1,9.1,29.47,West,266,8.3,13.2,39,0.00,,---,0.00,VWS V14.01,2013-03-03 21:49:00,
2013-03-03 16:50:00,31.1,9.1,29.47,WSW,252,5.8,6.3,39,0.00,,---,0.00,VWS V14.01,2013-03-03 21:50:00,
2013-03-03 16:51:00,31.1,9.1,29.47,WSW,242,4.0,6.3,39,0.00,,---,0.00,VWS V14.01,2013-03-03 21:51:00,
2013-03-03 16:52:00,31.1,9.1,29.47,SW,235,8.1,8.1,39,0.00,,---,0.00,VWS V14.01,2013-03-03 21:52:00,
2013-03-03 16:53:00,27.0,6.4,29.35,WSW,245,5.4,7.6,41,0.00,,---,0.00,VWS V14.01,2013-03-03 21:53:00,
2013-03-03 16:54:00,31.1,9.6,29.47,WSW,248,3.1,8.1,40,0.00,,---,0.00,VWS V14.01,2013-03-03 21:54:00,
2013-03-03 16:55:00,31.1,9.6,29.47,WSW,256,6.3,8.1,40,0.00,,---,0.00,VWS V14.01,2013-03-03 21:55:00,
2013-03-03 16:56:00,31.1,9.6,29.47,WSW,243,5.4,6.3,40,0.00,,---,0.00,VWS V14.01,2013-03-03 21:56:00,
2013-03-03 16:57:00,31.1,9.6,29.47,WNW,301,4.0,6.3,40,0.00,,---,0.00,VWS V14.01,2013-03-03 21:57:00,
2013-03-03 16:58:00,26.6,6.6,29.35,West,265,4.9,6.3,42,0.00,,---,0.00,VWS V14.01,2013-03-03 21:58:00,
2013-03-03 17:00:00,31.1,10.2,29.47,SW,231,3.1,10.5,41,0.00,,---,0.00,VWS V14.01,2013-03-03 22:00:00,
2013-03-03 17:01:00,31.1,10.2,29.47,WNW,291,4.9,8.7,41,0.00,,---,0.00,VWS V14.01,2013-03-03 22:01:00,
2013-03-03 17:02:00,31.1,10.2,29.47,NW,318,3.6,8.7,41,0.00,,---,0.00,VWS V14.01,2013-03-03 22:02:00,
2013-03-03 17:03:00,26.6,6.6,29.35,WSW,255,5.4,6.3,42,0.00,,---,0.00,VWS V14.01,2013-03-03 22:03:00,
2013-03-03 17:08:00,26.4,6.4,29.35,NW,311,8.3,8.7,42,0.00,,---,0.00,VWS V14.01,2013-03-03 22:08:00,
2013-03-03 17:14:00,26.2,6.3,29.35,West,266,6.3,7.6,42,0.00,,---,0.00,VWS V14.01,2013-03-03 22:14:00,
2013-03-03 17:19:00,26.1,6.1,29.35,NW,318,3.6,5.8,42,0.00,,---,0.00,VWS V14.01,2013-03-03 22:19:00,
2013-03-03 17:24:00,25.9,6.5,29.35,West,279,4.0,8.1,43,0.00,,---,0.00,VWS V14.01,2013-03-03 22:24:00,
2013-03-03 17:29:00,25.7,6.3,29.35,NW,314,3.6,8.3,43,0.00,,---,0.00,VWS V14.01,2013-03-03 22:29:00,
2013-03-03 17:34:00,25.9,6.5,29.35,WNW,301,3.6,6.3,43,0.00,,---,0.00,VWS V14.01,2013-03-03 22:34:00,
2013-03-03 17:39:00,25.7,6.3,29.38,WNW,299,2.2,6.3,43,0.00,,---,0.00,VWS V14.01,2013-03-03 22:39:00,
2013-03-03 17:44:00,25.5,6.7,29.38,West,263,4.9,7.6,44,0.00,,---,0.00,VWS V14.01,2013-03-03 22:44:00,
2013-03-03 17:49:00,25.3,7.0,29.38,WSW,248,2.2,7.6,45,0.00,,---,0.00,VWS V14.01,2013-03-03 22:49:00,
2013-03-03 17:54:00,25.3,7.5,29.38,WSW,258,6.3,6.3,46,0.00,,---,0.00,VWS V14.01,2013-03-03 22:54:00,
2013-03-03 17:59:00,25.3,7.5,29.38,NW,316,4.0,5.4,46,0.00,,---,0.00,VWS V14.01,2013-03-03 22:59:00,
2013-03-03 18:04:00,25.3,7.5,29.38,WNW,287,3.1,5.8,46,0.00,,---,0.00,VWS V14.01,2013-03-03 23:04:00,
2013-03-03 18:09:00,25.3,7.9,29.38,WNW,300,0.0,5.8,47,0.00,,---,0.00,VWS V14.01,2013-03-03 23:09:00,
2013-03-03 18:15:00,25.3,7.9,29.38,WSW,237,3.1,5.4,47,0.00,,---,0.00,VWS V14.01,2013-03-03 23:15:00,
2013-03-03 18:20:00,25.5,8.6,29.38,WNW,300,3.6,5.8,48,0.00,,---,0.00,VWS V14.01,2013-03-03 23:20:00,
2013-03-03 18:25:00,25.3,8.9,29.38,WNW,290,2.7,6.3,49,0.00,,---,0.00,VWS V14.01,2013-03-03 23:25:00,
2013-03-03 18:30:00,25.3,9.3,29.38,West,266,4.0,5.4,50,0.00,,---,0.00,VWS V14.01,2013-03-03 23:30:00,
2013-03-03 18:35:00,25.3,9.3,29.38,WSW,255,0.0,4.9,50,0.00,,---,0.00,VWS V14.01,2013-03-03 23:35:00,
2013-03-03 18:40:00,25.5,9.5,29.38,NW,311,5.4,5.4,50,0.00,,---,0.00,VWS V14.01,2013-03-03 23:40:00,
2013-03-03 18:46:00,25.5,9.9,29.38,West,278,0.0,0.0,51,0.00,,---,0.00,VWS V14.01,2013-03-03 23:46:00,
2013-03-03 18:51:00,25.3,10.2,29.38,WNW,300,3.1,3.6,52,0.00,,---,0.00,VWS V14.01,2013-03-03 23:51:00,
2013-03-03 18:56:00,25.3,10.6,29.38,West,277,0.0,2.7,53,0.00,,---,0.00,VWS V14.01,2013-03-03 23:56:00,
2013-03-03 18:58:00,29.8,10.1,29.50,WNW,299,4.5,6.3,43,0.00,,---,0.00,VWS V14.01,2013-03-03 23:58:00,
2013-03-03 18:59:00,29.8,10.1,29.50,West,269,4.0,6.3,43,0.00,,---,0.00,VWS V14.01,2013-03-03 23:59:00,
2013-03-03 19:01:00,25.5,10.8,29.38,WSW,249,4.9,6.3,53,0.00,,---,0.00,VWS V14.01,2013-03-04 00:01:00,
2013-03-03 19:02:00,29.7,9.9,29.50,WSW,237,4.9,6.7,43,0.00,,---,0.00,VWS V14.01,2013-03-04 00:02:00,
2013-03-03 19:03:00,29.7,9.9,29.50,NW,305,4.5,6.7,43,0.00,,---,0.00,VWS V14.01,2013-03-04 00:03:00,
2013-03-03 19:05:00,29.7,10.4,29.50,NW,307,5.4,5.4,44,0.00,,---,0.00,VWS V14.01,2013-03-04 00:05:00,
2013-03-03 19:06:00,25.5,10.8,29.38,WSW,249,2.2,4.0,53,0.00,,---,0.00,VWS V14.01,2013-03-04 00:06:00,
2013-03-03 19:07:00,29.7,10.4,29.50,West,265,3.1,6.3,44,0.00,,---,0.00,VWS V14.01,2013-03-04 00:07:00,
2013-03-03 19:09:00,29.7,10.4,29.50,WNW,300,5.4,7.6,44,0.00,,---,0.00,VWS V14.01,2013-03-04 00:09:00,
2013-03-03 19:10:00,29.7,10.4,29.50,NW,308,5.4,8.1,44,0.00,,---,0.00,VWS V14.01,2013-03-04 00:10:00,
2013-03-03 19:11:00,25.5,10.8,29.38,WSW,258,3.6,3.6,53,0.00,,---,0.00,VWS V14.01,2013-03-04 00:11:00,
2013-03-03 19:12:00,29.7,10.4,29.53,WNW,293,7.2,8.1,44,0.00,,---,0.00,VWS V14.01,2013-03-04 00:12:00,
2013-03-03 19:14:00,29.7,10.4,29.53,WNW,298,5.8,8.1,44,0.00,,---,0.00,VWS V14.01,2013-03-04 00:14:00,
2013-03-03 19:15:00,29.7,10.4,29.53,West,261,9.6,9.6,44,0.00,,---,0.00,VWS V14.01,2013-03-04 00:15:00,
2013-03-03 19:16:00,25.7,10.9,29.38,WSW,253,0.0,3.6,53,0.00,,---,0.00,VWS V14.01,2013-03-04 00:16:00,
2013-03-03 19:17:00,29.7,10.4,29.53,West,278,5.8,9.6,44,0.00,,---,0.00,VWS V14.01,2013-03-04 00:17:00,
2013-03-03 19:18:00,29.7,10.4,29.53,WNW,295,5.8,9.6,44,0.00,,---,0.00,VWS V14.01,2013-03-04 00:18:00,
2013-03-03 19:21:00,25.7,10.9,29.38,WNW,291,3.6,3.6,53,0.00,,---,0.00,VWS V14.01,2013-03-04 00:21:00,
2013-03-03 19:27:00,25.7,11.4,29.38,WSW,241,3.1,3.6,54,0.00,,---,0.00,VWS V14.01,2013-03-04 00:27:00,
2013-03-03 19:32:00,25.7,10.9,29.38,West,262,3.1,3.6,53,0.00,,---,0.00,VWS V14.01,2013-03-04 00:32:00,
2013-03-03 19:37:00,25.9,11.5,29.38,WNW,287,3.6,4.0,54,0.00,,---,0.00,VWS V14.01,2013-03-04 00:37:00,
2013-03-03 19:42:00,25.9,11.5,29.38,WSW,242,3.1,4.0,54,0.00,,---,0.00,VWS V14.01,2013-03-04 00:42:00,
2013-03-03 19:48:00,25.9,11.5,29.38,West,272,3.6,3.6,54,0.00,,---,0.00,VWS V14.01,2013-03-04 00:48:00,
2013-03-03 19:50:00,29.7,10.9,29.53,West,275,4.9,7.6,45,0.00,,---,0.00,VWS V14.01,2013-03-04 00:50:00,
2013-03-03 19:51:00,29.7,10.9,29.53,WSW,254,3.6,7.6,45,0.00,,---,0.00,VWS V14.01,2013-03-04 00:51:00,
2013-03-03 19:52:00,29.7,10.9,29.53,West,262,3.1,7.6,45,0.00,,---,0.00,VWS V14.01,2013-03-04 00:52:00,
2013-03-03 19:53:00,25.9,11.5,29.38,West,281,3.1,3.1,54,0.00,,---,0.00,VWS V14.01,2013-03-04 00:53:00,
2013-03-03 19:56:00,29.8,11.1,29.53,WSW,244,3.6,3.6,45,0.00,,---,0.00,VWS V14.01,2013-03-04 00:56:00,
2013-03-03 19:58:00,25.7,11.4,29.38,WNW,288,2.7,4.9,54,0.00,,---,0.00,VWS V14.01,2013-03-04 00:58:00,
2013-03-03 19:59:00,29.8,11.1,29.53,West,263,3.6,6.3,45,0.00,,---,0.00,VWS V14.01,2013-03-04 00:59:00,
2013-03-03 20:00:00,29.8,11.1,29.53,West,263,3.6,6.3,45,0.00,,---,0.00,VWS V14.01,2013-03-04 01:00:00,
2013-03-03 20:01:00,29.8,11.1,29.53,West,263,4.0,5.8,45,0.00,,---,0.00,VWS V14.01,2013-03-04 01:01:00,
2013-03-03 20:02:00,29.8,11.1,29.53,WNW,283,5.4,6.3,45,0.00,,---,0.00,VWS V14.01,2013-03-04 01:02:00,
2013-03-03 20:03:00,25.7,11.8,29.38,NNW,344,6.3,6.3,55,0.00,,---,0.00,VWS V14.01,2013-03-04 01:03:00,
2013-03-03 20:05:00,29.7,10.9,29.53,WSW,242,6.3,6.3,45,0.00,,---,0.00,VWS V14.01,2013-03-04 01:05:00,
2013-03-03 20:06:00,29.7,10.9,29.53,WSW,249,5.8,6.3,45,0.00,,---,0.00,VWS V14.01,2013-03-04 01:06:00,
2013-03-03 20:07:00,29.7,10.9,29.53,WSW,247,5.8,6.3,45,0.00,,---,0.00,VWS V14.01,2013-03-04 01:07:00,
2013-03-03 20:08:00,25.3,11.0,29.38,WNW,293,3.6,8.3,54,0.00,,---,0.00,VWS V14.01,2013-03-04 01:08:00,
2013-03-03 20:09:00,29.7,10.9,29.53,WNW,291,5.4,7.6,45,0.00,,---,0.00,VWS V14.01,2013-03-04 01:09:00,
2013-03-03 20:10:00,29.7,10.9,29.53,West,273,5.8,8.7,45,0.00,,---,0.00,VWS V14.01,2013-03-04 01:10:00,
2013-03-03 20:11:00,29.7,10.9,29.53,NW,319,5.8,8.7,45,0.00,,---,0.00,VWS V14.01,2013-03-04 01:11:00,
2013-03-03 20:12:00,29.7,10.9,29.53,NNW,330,5.8,8.7,45,0.00,,---,0.00,VWS V14.01,2013-03-04 01:12:00,
2013-03-03 20:13:00,25.3,11.0,29.38,NNW,339,7.6,7.6,54,0.00,,---,0.00,VWS V14.01,2013-03-04 01:13:00,
2013-03-03 20:18:00,25.2,10.0,29.38,WNW,301,8.3,10.1,52,0.00,,---,0.00,VWS V14.01,2013-03-04 01:18:00,
2013-03-03 20:23:00,25.0,9.9,29.41,West,271,3.6,6.3,52,0.00,,---,0.00,VWS V14.01,2013-03-04 01:23:00,
2013-03-03 20:29:00,24.8,10.1,29.41,WNW,285,8.3,8.7,53,0.00,,---,0.00,VWS V14.01,2013-03-04 01:29:00,
2013-03-03 20:34:00,24.6,9.9,29.41,NNW,334,4.0,8.3,53,0.00,,---,0.00,VWS V14.01,2013-03-04 01:34:00,
2013-03-03 20:39:00,24.6,10.8,29.41,NW,306,6.3,10.1,55,0.00,,---,0.00,VWS V14.01,2013-03-04 01:39:00,
2013-03-03 20:44:00,24.6,11.2,29.41,WNW,282,5.4,8.1,56,0.00,,---,0.00,VWS V14.01,2013-03-04 01:44:00,
2013-03-03 20:49:00,24.6,11.2,29.41,West,281,4.0,8.7,56,0.00,,---,0.00,VWS V14.01,2013-03-04 01:49:00,
2013-03-03 20:54:00,24.4,11.0,29.41,WNW,298,5.8,8.1,56,0.00,,---,0.00,VWS V14.01,2013-03-04 01:54:00,
2013-03-03 20:59:00,24.4,11.0,29.41,West,268,2.7,8.3,56,0.00,,---,0.00,VWS V14.01,2013-03-04 01:59:00,
2013-03-03 21:05:00,24.4,11.4,29.41,NW,311,3.6,6.3,57,0.00,,---,0.00,VWS V14.01,2013-03-04 02:05:00,
2013-03-03 21:10:00,24.4,11.4,29.41,NW,316,4.0,5.4,57,0.00,,---,0.00,VWS V14.01,2013-03-04 02:10:00,
2013-03-03 21:15:00,24.4,11.0,29.41,West,281,4.0,10.5,56,0.00,,---,0.00,VWS V14.01,2013-03-04 02:15:00,
2013-03-03 21:20:00,24.4,10.6,29.41,NW,312,4.9,5.8,55,0.00,,---,0.00,VWS V14.01,2013-03-04 02:20:00,
2013-03-03 21:25:00,24.3,10.4,29.41,NW,317,5.8,7.6,55,0.00,,---,0.00,VWS V14.01,2013-03-04 02:25:00,
2013-03-03 21:30:00,24.3,10.0,29.41,WNW,287,5.8,7.6,54,0.00,,---,0.00,VWS V14.01,2013-03-04 02:30:00,
2013-03-03 21:35:00,24.3,10.4,29.41,NNW,330,4.0,5.8,55,0.00,,---,0.00,VWS V14.01,2013-03-04 02:35:00,
2013-03-03 21:40:00,24.3,10.4,29.41,WNW,287,4.0,6.3,55,0.00,,---,0.00,VWS V14.01,2013-03-04 02:40:00,
2013-03-03 21:45:00,24.3,10.4,29.41,NW,315,3.6,6.3,55,0.00,,---,0.00,VWS V14.01,2013-03-04 02:45:00,
2013-03-03 21:50:00,24.1,9.9,29.41,WNW,302,3.6,8.1,54,0.00,,---,0.00,VWS V14.01,2013-03-04 02:50:00,
2013-03-03 21:55:00,24.1,10.3,29.41,WNW,284,4.0,5.8,55,0.00,,---,0.00,VWS V14.01,2013-03-04 02:55:00,
2013-03-03 22:00:00,24.1,10.3,29.41,WNW,303,3.6,8.1,55,0.00,,---,0.00,VWS V14.01,2013-03-04 03:00:00,
2013-03-03 22:05:00,23.9,9.7,29.41,West,279,6.3,6.3,54,0.00,,---,0.00,VWS V14.01,2013-03-04 03:05:00,
2013-03-03 22:10:00,23.9,9.3,29.41,WNW,297,3.1,4.9,53,0.00,,---,0.00,VWS V14.01,2013-03-04 03:10:00,
2013-03-03 22:16:00,23.7,8.2,29.41,NW,326,5.4,5.4,51,0.00,,---,0.00,VWS V14.01,2013-03-04 03:16:00,
2013-03-03 22:21:00,23.7,8.2,29.41,NNW,338,2.7,6.3,51,0.00,,---,0.00,VWS V14.01,2013-03-04 03:21:00,
2013-03-03 22:26:00,23.7,8.2,29.41,NW,313,3.1,5.4,51,0.00,,---,0.00,VWS V14.01,2013-03-04 03:26:00,
2013-03-03 22:31:00,23.7,8.2,29.41,West,267,4.0,4.0,51,0.00,,---,0.00,VWS V14.01,2013-03-04 03:31:00,
2013-03-03 22:36:00,23.7,8.2,29.41,NW,309,3.6,5.4,51,0.00,,---,0.00,VWS V14.01,2013-03-04 03:36:00,
2013-03-03 22:41:00,23.7,8.7,29.41,WSW,243,4.0,4.9,52,0.00,,---,0.00,VWS V14.01,2013-03-04 03:41:00,
2013-03-03 22:46:00,23.9,8.9,29.41,WNW,294,3.6,6.3,52,0.00,,---,0.00,VWS V14.01,2013-03-04 03:46:00,
2013-03-03 22:52:00,23.7,9.1,29.41,WSW,258,3.6,6.3,53,0.00,,---,0.00,VWS V14.01,2013-03-04 03:52:00,
2013-03-03 22:57:00,23.7,9.1,29.41,WNW,293,6.3,6.3,53,0.00,,---,0.00,VWS V14.01,2013-03-04 03:57:00,
2013-03-03 23:02:00,23.7,9.5,29.41,West,267,5.4,5.4,54,0.00,,---,0.00,VWS V14.01,2013-03-04 04:02:00,
2013-03-03 23:07:00,23.5,9.8,29.41,WSW,249,3.6,7.6,55,0.00,,---,0.00,VWS V14.01,2013-03-04 04:07:00,
2013-03-03 23:12:00,23.5,10.6,29.41,WNW,282,0.0,6.3,57,0.00,,---,0.00,VWS V14.01,2013-03-04 04:12:00,
2013-03-03 23:17:00,23.5,10.6,29.41,West,270,5.4,5.4,57,0.00,,---,0.00,VWS V14.01,2013-03-04 04:17:00,
2013-03-03 23:23:00,23.5,10.9,29.41,WSW,240,4.9,6.3,58,0.00,,---,0.00,VWS V14.01,2013-03-04 04:23:00,
2013-03-03 23:27:00,23.5,10.9,29.41,SW,236,3.6,3.6,58,0.00,,---,0.00,VWS V14.01,2013-03-04 04:27:00,
2013-03-03 23:33:00,23.5,10.9,29.41,West,264,4.0,7.6,58,0.00,,---,0.00,VWS V14.01,2013-03-04 04:33:00,
2013-03-03 23:38:00,23.5,10.9,29.41,WNW,282,3.1,5.8,58,0.00,,---,0.00,VWS V14.01,2013-03-04 04:38:00,
2013-03-03 23:43:00,23.4,10.8,29.41,WSW,251,3.1,5.8,58,0.00,,---,0.00,VWS V14.01,2013-03-04 04:43:00,
2013-03-03 23:48:00,23.4,10.8,29.41,WNW,298,5.8,5.8,58,0.00,,---,0.00,VWS V14.01,2013-03-04 04:48:00,
2013-03-03 23:53:00,23.2,11.0,29.41,West,264,2.2,4.0,59,0.00,,---,0.00,VWS V14.01,2013-03-04 04:53:00,
2013-03-03 23:58:00,23.2,11.0,29.41,WSW,241,2.2,4.0,59,0.00,,---,0.00,VWS V14.01,2013-03-04 04:58:00,